sensor_id;sensor_type;location;lat;lon;timestamp;temperature;humidity
41953;DHT22;63613;28.200;112.870;2023-09-19T00:00:43;31.20;54.30
41953;DHT22;63613;28.200;112.870;2023-09-19T00:03:10;31.20;54.40
41953;DHT22;63613;28.200;112.870;2023-09-19T00:05:38;31.20;54.70
41953;DHT22;63613;28.200;112.870;2023-09-19T00:08:06;31.20;54.70
41953;DHT22;63613;28.200;112.870;2023-09-19T00:10:33;31.20;54.60
41953;DHT22;63613;28.200;112.870;2023-09-19T00:13:05;31.20;54.60
41953;DHT22;63613;28.200;112.870;2023-09-19T00:15:58;31.20;54.80
41953;DHT22;63613;28.200;112.870;2023-09-19T00:18:26;31.20;54.50
41953;DHT22;63613;28.200;112.870;2023-09-19T00:20:58;31.20;54.50
41953;DHT22;63613;28.200;112.870;2023-09-19T00:23:25;31.20;54.60
41953;DHT22;63613;28.200;112.870;2023-09-19T00:25:53;31.20;54.60
41953;DHT22;63613;28.200;112.870;2023-09-19T00:28:23;31.30;54.50
41953;DHT22;63613;28.200;112.870;2023-09-19T00:30:50;31.30;54.50
41953;DHT22;63613;28.200;112.870;2023-09-19T00:33:17;31.30;54.40
41953;DHT22;63613;28.200;112.870;2023-09-19T00:35:48;31.20;54.40
41953;DHT22;63613;28.200;112.870;2023-09-19T00:38:15;31.30;54.30
41953;DHT22;63613;28.200;112.870;2023-09-19T00:40:49;31.30;54.70
41953;DHT22;63613;28.200;112.870;2023-09-19T00:43:17;31.30;55.40
41953;DHT22;63613;28.200;112.870;2023-09-19T00:45:48;31.30;56.10
41953;DHT22;63613;28.200;112.870;2023-09-19T00:48:21;31.30;54.90
41953;DHT22;63613;28.200;112.870;2023-09-19T00:50:49;31.30;54.90
41953;DHT22;63613;28.200;112.870;2023-09-19T00:53:19;31.30;55.00
41953;DHT22;63613;28.200;112.870;2023-09-19T00:55:50;31.30;54.80
41953;DHT22;63613;28.200;112.870;2023-09-19T00:58:18;31.30;55.70
41953;DHT22;63613;28.200;112.870;2023-09-19T01:00:50;31.30;55.10
41953;DHT22;63613;28.200;112.870;2023-09-19T01:03:17;31.30;55.10
41953;DHT22;63613;28.200;112.870;2023-09-19T01:05:44;31.40;54.70
41953;DHT22;63613;28.200;112.870;2023-09-19T01:08:11;31.40;54.60
41953;DHT22;63613;28.200;112.870;2023-09-19T01:10:45;31.30;54.60
41953;DHT22;63613;28.200;112.870;2023-09-19T01:13:31;31.40;54.50
41953;DHT22;63613;28.200;112.870;2023-09-19T01:19:07;31.40;54.30
41953;DHT22;63613;28.200;112.870;2023-09-19T01:24:55;31.50;54.90
41953;DHT22;63613;28.200;112.870;2023-09-19T01:30:35;31.50;56.30
41953;DHT22;63613;28.200;112.870;2023-09-19T01:33:07;31.50;55.90
41953;DHT22;63613;28.200;112.870;2023-09-19T01:35:34;31.60;56.10
41953;DHT22;63613;28.200;112.870;2023-09-19T01:38:07;31.60;55.90
41953;DHT22;63613;28.200;112.870;2023-09-19T01:41:04;31.60;56.20
41953;DHT22;63613;28.200;112.870;2023-09-19T01:43:42;31.60;55.60
41953;DHT22;63613;28.200;112.870;2023-09-19T01:46:24;31.60;55.60
41953;DHT22;63613;28.200;112.870;2023-09-19T01:49:18;31.70;55.90
41953;DHT22;63613;28.200;112.870;2023-09-19T01:52:17;31.70;56.20
41953;DHT22;63613;28.200;112.870;2023-09-19T01:54:51;31.70;55.60
41953;DHT22;63613;28.200;112.870;2023-09-19T02:00:11;31.80;55.50
41953;DHT22;63613;28.200;112.870;2023-09-19T02:02:39;31.80;54.50
41953;DHT22;63613;28.200;112.870;2023-09-19T02:05:10;31.80;54.50
41953;DHT22;63613;28.200;112.870;2023-09-19T02:07:39;31.80;54.30
41953;DHT22;63613;28.200;112.870;2023-09-19T02:10:09;31.90;53.40
41953;DHT22;63613;28.200;112.870;2023-09-19T02:12:38;31.90;53.30
41953;DHT22;63613;28.200;112.870;2023-09-19T02:15:27;31.90;53.20
41953;DHT22;63613;28.200;112.870;2023-09-19T02:17:54;31.90;52.60
41953;DHT22;63613;28.200;112.870;2023-09-19T02:20:22;32.00;52.90
41953;DHT22;63613;28.200;112.870;2023-09-19T02:22:52;32.10;53.10
41953;DHT22;63613;28.200;112.870;2023-09-19T02:25:19;32.10;53.00
41953;DHT22;63613;28.200;112.870;2023-09-19T02:27:48;32.20;52.00
41953;DHT22;63613;28.200;112.870;2023-09-19T02:30:34;32.10;51.10
41953;DHT22;63613;28.200;112.870;2023-09-19T02:33:07;32.20;50.40
41953;DHT22;63613;28.200;112.870;2023-09-19T02:35:34;32.20;49.40
41953;DHT22;63613;28.200;112.870;2023-09-19T02:38:02;32.20;49.10
41953;DHT22;63613;28.200;112.870;2023-09-19T02:40:32;32.30;49.80
41953;DHT22;63613;28.200;112.870;2023-09-19T02:43:02;32.20;50.60
41953;DHT22;63613;28.200;112.870;2023-09-19T02:45:29;32.30;50.50
41953;DHT22;63613;28.200;112.870;2023-09-19T02:47:56;32.40;50.40
41953;DHT22;63613;28.200;112.870;2023-09-19T02:50:23;32.40;50.40
41953;DHT22;63613;28.200;112.870;2023-09-19T02:52:50;32.50;51.00
41953;DHT22;63613;28.200;112.870;2023-09-19T02:55:18;32.50;51.10
41953;DHT22;63613;28.200;112.870;2023-09-19T02:57:49;32.60;51.50
41953;DHT22;63613;28.200;112.870;2023-09-19T03:00:17;32.60;51.80
41953;DHT22;63613;28.200;112.870;2023-09-19T03:02:49;32.70;52.00
41953;DHT22;63613;28.200;112.870;2023-09-19T03:05:16;32.70;51.90
41953;DHT22;63613;28.200;112.870;2023-09-19T03:07:44;32.80;52.10
41953;DHT22;63613;28.200;112.870;2023-09-19T03:10:13;32.80;51.90
41953;DHT22;63613;28.200;112.870;2023-09-19T03:12:41;32.80;51.60
41953;DHT22;63613;28.200;112.870;2023-09-19T03:15:08;32.90;51.10
41953;DHT22;63613;28.200;112.870;2023-09-19T03:17:35;32.90;50.70
41953;DHT22;63613;28.200;112.870;2023-09-19T03:20:04;32.90;50.40
41953;DHT22;63613;28.200;112.870;2023-09-19T03:22:35;33.00;50.30
41953;DHT22;63613;28.200;112.870;2023-09-19T03:25:16;33.10;50.60
41953;DHT22;63613;28.200;112.870;2023-09-19T03:27:46;33.20;51.00
41953;DHT22;63613;28.200;112.870;2023-09-19T03:30:13;33.20;50.40
41953;DHT22;63613;28.200;112.870;2023-09-19T03:32:46;33.20;50.80
41953;DHT22;63613;28.200;112.870;2023-09-19T03:35:16;33.20;50.80
41953;DHT22;63613;28.200;112.870;2023-09-19T03:37:43;33.30;50.60
41953;DHT22;63613;28.200;112.870;2023-09-19T03:40:11;33.40;51.00
41953;DHT22;63613;28.200;112.870;2023-09-19T03:42:41;33.40;51.00
41953;DHT22;63613;28.200;112.870;2023-09-19T03:45:09;33.50;50.90
41953;DHT22;63613;28.200;112.870;2023-09-19T03:47:39;33.60;51.00
41953;DHT22;63613;28.200;112.870;2023-09-19T03:50:07;33.60;50.90
41953;DHT22;63613;28.200;112.870;2023-09-19T03:52:37;33.70;51.00
41953;DHT22;63613;28.200;112.870;2023-09-19T03:55:07;33.70;50.60
41953;DHT22;63613;28.200;112.870;2023-09-19T03:57:40;33.70;50.60
41953;DHT22;63613;28.200;112.870;2023-09-19T04:00:07;33.70;50.80
41953;DHT22;63613;28.200;112.870;2023-09-19T04:02:40;33.80;50.90
41953;DHT22;63613;28.200;112.870;2023-09-19T04:05:07;33.90;51.00
41953;DHT22;63613;28.200;112.870;2023-09-19T04:07:54;33.90;50.80
41953;DHT22;63613;28.200;112.870;2023-09-19T04:10:21;34.00;50.70
41953;DHT22;63613;28.200;112.870;2023-09-19T04:12:54;34.10;50.50
41953;DHT22;63613;28.200;112.870;2023-09-19T04:15:24;34.10;50.20
41953;DHT22;63613;28.200;112.870;2023-09-19T04:17:51;34.20;49.90
41953;DHT22;63613;28.200;112.870;2023-09-19T04:20:19;34.10;49.60
41953;DHT22;63613;28.200;112.870;2023-09-19T04:22:51;34.20;49.80
41953;DHT22;63613;28.200;112.870;2023-09-19T04:25:21;34.20;50.00
41953;DHT22;63613;28.200;112.870;2023-09-19T04:27:50;34.30;50.30
41953;DHT22;63613;28.200;112.870;2023-09-19T04:30:19;34.40;50.40
41953;DHT22;63613;28.200;112.870;2023-09-19T04:32:47;34.40;50.40
41953;DHT22;63613;28.200;112.870;2023-09-19T04:35:16;34.50;50.50
41953;DHT22;63613;28.200;112.870;2023-09-19T04:37:43;34.50;50.30
41953;DHT22;63613;28.200;112.870;2023-09-19T04:40:10;34.60;50.00
41953;DHT22;63613;28.200;112.870;2023-09-19T04:42:52;34.60;49.70
41953;DHT22;63613;28.200;112.870;2023-09-19T04:45:27;34.60;49.70
41953;DHT22;63613;28.200;112.870;2023-09-19T04:47:54;34.60;49.80
41953;DHT22;63613;28.200;112.870;2023-09-19T04:50:22;34.70;49.80
41953;DHT22;63613;28.200;112.870;2023-09-19T04:52:51;34.70;49.60
41953;DHT22;63613;28.200;112.870;2023-09-19T04:55:18;34.80;49.40
41953;DHT22;63613;28.200;112.870;2023-09-19T04:57:50;34.80;49.50
41953;DHT22;63613;28.200;112.870;2023-09-19T05:00:39;34.80;49.40
41953;DHT22;63613;28.200;112.870;2023-09-19T05:03:05;34.80;49.40
41953;DHT22;63613;28.200;112.870;2023-09-19T05:05:35;34.90;49.10
41953;DHT22;63613;28.200;112.870;2023-09-19T05:08:06;35.00;48.80
41953;DHT22;63613;28.200;112.870;2023-09-19T05:10:35;35.00;48.70
41953;DHT22;63613;28.200;112.870;2023-09-19T05:13:05;35.00;48.50
41953;DHT22;63613;28.200;112.870;2023-09-19T05:15:34;35.00;48.40
41953;DHT22;63613;28.200;112.870;2023-09-19T05:18:04;35.00;48.30
41953;DHT22;63613;28.200;112.870;2023-09-19T05:20:33;35.10;47.90
41953;DHT22;63613;28.200;112.870;2023-09-19T05:23:04;35.10;47.90
41953;DHT22;63613;28.200;112.870;2023-09-19T05:25:36;35.20;47.90
41953;DHT22;63613;28.200;112.870;2023-09-19T05:28:03;35.20;47.90
41953;DHT22;63613;28.200;112.870;2023-09-19T05:30:32;35.20;47.80
41953;DHT22;63613;28.200;112.870;2023-09-19T05:32:59;35.30;47.70
41953;DHT22;63613;28.200;112.870;2023-09-19T05:35:31;35.30;47.50
41953;DHT22;63613;28.200;112.870;2023-09-19T05:37:58;35.30;47.40
41953;DHT22;63613;28.200;112.870;2023-09-19T05:40:46;35.40;47.50
41953;DHT22;63613;28.200;112.870;2023-09-19T05:43:13;35.40;47.40
41953;DHT22;63613;28.200;112.870;2023-09-19T05:45:41;35.40;47.40
41953;DHT22;63613;28.200;112.870;2023-09-19T05:48:11;35.30;47.20
41953;DHT22;63613;28.200;112.870;2023-09-19T05:50:41;35.40;47.00
41953;DHT22;63613;28.200;112.870;2023-09-19T05:53:09;35.40;47.00
41953;DHT22;63613;28.200;112.870;2023-09-19T05:55:38;35.50;47.20
41953;DHT22;63613;28.200;112.870;2023-09-19T05:58:07;35.50;47.10
41953;DHT22;63613;28.200;112.870;2023-09-19T06:00:35;35.50;46.90
41953;DHT22;63613;28.200;112.870;2023-09-19T06:03:02;35.40;46.90
41953;DHT22;63613;28.200;112.870;2023-09-19T06:05:29;35.40;46.90
41953;DHT22;63613;28.200;112.870;2023-09-19T06:07:59;35.30;47.00
41953;DHT22;63613;28.200;112.870;2023-09-19T06:10:27;35.30;46.80
41953;DHT22;63613;28.200;112.870;2023-09-19T06:12:58;35.30;46.90
41953;DHT22;63613;28.200;112.870;2023-09-19T06:15:46;35.30;47.00
41953;DHT22;63613;28.200;112.870;2023-09-19T06:18:14;35.40;46.90
41953;DHT22;63613;28.200;112.870;2023-09-19T06:20:48;35.40;47.10
41953;DHT22;63613;28.200;112.870;2023-09-19T06:23:17;35.40;47.00
41953;DHT22;63613;28.200;112.870;2023-09-19T06:25:44;35.40;46.90
41953;DHT22;63613;28.200;112.870;2023-09-19T06:28:11;35.50;47.00
41953;DHT22;63613;28.200;112.870;2023-09-19T06:30:45;35.60;47.10
41953;DHT22;63613;28.200;112.870;2023-09-19T06:33:12;35.50;46.90
41953;DHT22;63613;28.200;112.870;2023-09-19T06:35:59;35.60;46.60
41953;DHT22;63613;28.200;112.870;2023-09-19T06:38:27;35.60;46.70
41953;DHT22;63613;28.200;112.870;2023-09-19T06:40:54;35.60;46.60
41953;DHT22;63613;28.200;112.870;2023-09-19T06:43:23;35.70;46.50
41953;DHT22;63613;28.200;112.870;2023-09-19T06:45:50;35.70;46.30
41953;DHT22;63613;28.200;112.870;2023-09-19T06:48:18;35.70;46.20
41953;DHT22;63613;28.200;112.870;2023-09-19T06:50:44;35.80;46.00
41953;DHT22;63613;28.200;112.870;2023-09-19T06:53:12;35.80;46.10
41953;DHT22;63613;28.200;112.870;2023-09-19T06:55:41;35.80;46.20
41953;DHT22;63613;28.200;112.870;2023-09-19T06:58:10;35.80;46.20
41953;DHT22;63613;28.200;112.870;2023-09-19T07:00:37;35.80;46.10
41953;DHT22;63613;28.200;112.870;2023-09-19T07:03:08;35.80;46.10
41953;DHT22;63613;28.200;112.870;2023-09-19T07:05:41;35.90;46.20
41953;DHT22;63613;28.200;112.870;2023-09-19T07:08:29;36.00;46.10
41953;DHT22;63613;28.200;112.870;2023-09-19T07:10:56;35.90;45.90
41953;DHT22;63613;28.200;112.870;2023-09-19T07:13:23;35.90;46.00
41953;DHT22;63613;28.200;112.870;2023-09-19T07:15:52;36.00;46.00
41953;DHT22;63613;28.200;112.870;2023-09-19T07:18:20;35.90;45.80
41953;DHT22;63613;28.200;112.870;2023-09-19T07:20:49;35.90;45.70
41953;DHT22;63613;28.200;112.870;2023-09-19T07:23:21;35.90;45.70
41953;DHT22;63613;28.200;112.870;2023-09-19T07:26:09;35.80;45.60
41953;DHT22;63613;28.200;112.870;2023-09-19T07:28:36;35.70;45.90
41953;DHT22;63613;28.200;112.870;2023-09-19T07:31:03;35.70;45.80
41953;DHT22;63613;28.200;112.870;2023-09-19T07:33:31;35.70;45.80
41953;DHT22;63613;28.200;112.870;2023-09-19T07:35:58;35.70;46.00
41953;DHT22;63613;28.200;112.870;2023-09-19T07:38:27;35.60;46.00
41953;DHT22;63613;28.200;112.870;2023-09-19T07:41:00;35.70;46.20
41953;DHT22;63613;28.200;112.870;2023-09-19T07:43:28;35.60;46.50
41953;DHT22;63613;28.200;112.870;2023-09-19T07:45:55;35.60;46.70
41953;DHT22;63613;28.200;112.870;2023-09-19T07:48:22;35.50;46.60
41953;DHT22;63613;28.200;112.870;2023-09-19T07:50:50;35.50;46.70
41953;DHT22;63613;28.200;112.870;2023-09-19T07:53:19;35.50;46.70
41953;DHT22;63613;28.200;112.870;2023-09-19T07:55:46;35.60;46.70
41953;DHT22;63613;28.200;112.870;2023-09-19T07:58:14;35.50;46.70
41953;DHT22;63613;28.200;112.870;2023-09-19T08:00:42;35.50;46.70
41953;DHT22;63613;28.200;112.870;2023-09-19T08:03:09;35.60;46.70
41953;DHT22;63613;28.200;112.870;2023-09-19T08:05:40;35.50;46.80
41953;DHT22;63613;28.200;112.870;2023-09-19T08:08:09;35.40;46.70
41953;DHT22;63613;28.200;112.870;2023-09-19T08:10:40;35.40;46.80
41953;DHT22;63613;28.200;112.870;2023-09-19T08:13:09;35.40;46.70
41953;DHT22;63613;28.200;112.870;2023-09-19T08:15:43;35.30;46.70
41953;DHT22;63613;28.200;112.870;2023-09-19T08:18:10;35.30;46.80
41953;DHT22;63613;28.200;112.870;2023-09-19T08:20:40;35.30;46.80
41953;DHT22;63613;28.200;112.870;2023-09-19T08:23:08;35.30;47.00
41953;DHT22;63613;28.200;112.870;2023-09-19T08:25:36;35.30;47.00
41953;DHT22;63613;28.200;112.870;2023-09-19T08:28:05;35.20;47.20
41953;DHT22;63613;28.200;112.870;2023-09-19T08:30:34;35.20;47.10
41953;DHT22;63613;28.200;112.870;2023-09-19T08:33:04;35.20;47.10
41953;DHT22;63613;28.200;112.870;2023-09-19T08:35:31;35.20;47.10
41953;DHT22;63613;28.200;112.870;2023-09-19T08:37:57;35.20;47.20
41953;DHT22;63613;28.200;112.870;2023-09-19T08:40:44;35.10;47.50
41953;DHT22;63613;28.200;112.870;2023-09-19T08:43:11;35.20;47.70
41953;DHT22;63613;28.200;112.870;2023-09-19T08:45:40;35.10;47.90
41953;DHT22;63613;28.200;112.870;2023-09-19T08:50:56;35.00;48.20
41953;DHT22;63613;28.200;112.870;2023-09-19T08:53:34;35.10;48.10
41953;DHT22;63613;28.200;112.870;2023-09-19T08:56:08;35.00;48.10
41953;DHT22;63613;28.200;112.870;2023-09-19T08:58:46;34.90;48.00
41953;DHT22;63613;28.200;112.870;2023-09-19T09:01:16;34.90;48.00
41953;DHT22;63613;28.200;112.870;2023-09-19T09:03:44;34.90;47.80
41953;DHT22;63613;28.200;112.870;2023-09-19T09:06:14;34.80;47.80
41953;DHT22;63613;28.200;112.870;2023-09-19T09:08:44;34.80;47.70
41953;DHT22;63613;28.200;112.870;2023-09-19T09:11:15;34.80;47.70
41953;DHT22;63613;28.200;112.870;2023-09-19T09:13:47;34.70;47.90
41953;DHT22;63613;28.200;112.870;2023-09-19T09:16:15;34.70;48.00
41953;DHT22;63613;28.200;112.870;2023-09-19T09:18:50;34.70;48.00
41953;DHT22;63613;28.200;112.870;2023-09-19T09:21:18;34.70;48.10
41953;DHT22;63613;28.200;112.870;2023-09-19T09:23:49;34.60;48.10
41953;DHT22;63613;28.200;112.870;2023-09-19T09:26:46;34.60;48.20
41953;DHT22;63613;28.200;112.870;2023-09-19T09:29:52;34.60;48.20
41953;DHT22;63613;28.200;112.870;2023-09-19T09:32:49;34.50;48.40
41953;DHT22;63613;28.200;112.870;2023-09-19T09:35:14;34.50;48.30
41953;DHT22;63613;28.200;112.870;2023-09-19T09:37:47;34.50;48.30
41953;DHT22;63613;28.200;112.870;2023-09-19T09:40:49;34.40;48.60
41953;DHT22;63613;28.200;112.870;2023-09-19T09:43:36;34.40;48.90
41953;DHT22;63613;28.200;112.870;2023-09-19T09:46:18;34.40;48.90
41953;DHT22;63613;28.200;112.870;2023-09-19T09:52:04;34.30;49.10
41953;DHT22;63613;28.200;112.870;2023-09-19T09:55:03;34.20;49.40
41953;DHT22;63613;28.200;112.870;2023-09-19T09:57:34;34.20;49.50
41953;DHT22;63613;28.200;112.870;2023-09-19T10:00:02;34.20;49.50
41953;DHT22;63613;28.200;112.870;2023-09-19T10:02:41;34.20;49.50
41953;DHT22;63613;28.200;112.870;2023-09-19T10:05:19;34.10;49.60
41953;DHT22;63613;28.200;112.870;2023-09-19T10:11:34;34.10;49.60
41953;DHT22;63613;28.200;112.870;2023-09-19T10:14:07;34.10;49.50
41953;DHT22;63613;28.200;112.870;2023-09-19T10:16:59;34.00;49.60
41953;DHT22;63613;28.200;112.870;2023-09-19T10:19:42;34.00;49.60
41953;DHT22;63613;28.200;112.870;2023-09-19T10:22:17;33.90;49.30
41953;DHT22;63613;28.200;112.870;2023-09-19T10:24:52;33.90;48.40
41953;DHT22;63613;28.200;112.870;2023-09-19T10:27:24;33.90;47.70
41953;DHT22;63613;28.200;112.870;2023-09-19T10:29:54;33.80;47.50
41953;DHT22;63613;28.200;112.870;2023-09-19T10:32:28;33.80;47.40
41953;DHT22;63613;28.200;112.870;2023-09-19T10:35:05;33.80;47.40
41953;DHT22;63613;28.200;112.870;2023-09-19T10:37:38;33.80;47.40
41953;DHT22;63613;28.200;112.870;2023-09-19T10:40:20;33.70;47.80
41953;DHT22;63613;28.200;112.870;2023-09-19T10:43:11;33.70;47.70
41953;DHT22;63613;28.200;112.870;2023-09-19T10:45:50;33.70;47.80
41953;DHT22;63613;28.200;112.870;2023-09-19T10:48:27;33.70;48.10
41953;DHT22;63613;28.200;112.870;2023-09-19T10:51:20;33.70;48.20
41953;DHT22;63613;28.200;112.870;2023-09-19T10:54:21;33.70;47.90
41953;DHT22;63613;28.200;112.870;2023-09-19T10:57:00;33.70;47.40
41953;DHT22;63613;28.200;112.870;2023-09-19T10:59:31;33.60;47.30
41953;DHT22;63613;28.200;112.870;2023-09-19T11:02:21;33.60;47.50
41953;DHT22;63613;28.200;112.870;2023-09-19T11:05:01;33.60;47.80
41953;DHT22;63613;28.200;112.870;2023-09-19T11:07:57;33.60;47.60
41953;DHT22;63613;28.200;112.870;2023-09-19T11:10:48;33.60;47.90
41953;DHT22;63613;28.200;112.870;2023-09-19T11:13:32;33.50;47.60
41953;DHT22;63613;28.200;112.870;2023-09-19T11:16:04;33.50;47.00
41953;DHT22;63613;28.200;112.870;2023-09-19T11:27:13;33.40;46.30
41953;DHT22;63613;28.200;112.870;2023-09-19T11:29:49;33.40;46.30
41953;DHT22;63613;28.200;112.870;2023-09-19T11:33:20;33.30;46.00
41953;DHT22;63613;28.200;112.870;2023-09-19T11:36:02;33.30;46.00
41953;DHT22;63613;28.200;112.870;2023-09-19T11:49:31;33.20;44.50
41953;DHT22;63613;28.200;112.870;2023-09-19T11:52:00;33.20;44.50
41953;DHT22;63613;28.200;112.870;2023-09-19T11:54:31;33.20;43.80
41953;DHT22;63613;28.200;112.870;2023-09-19T11:57:01;33.20;43.70
41953;DHT22;63613;28.200;112.870;2023-09-19T11:59:30;33.20;43.40
41953;DHT22;63613;28.200;112.870;2023-09-19T12:02:05;33.20;43.10
41953;DHT22;63613;28.200;112.870;2023-09-19T12:04:43;33.20;42.80
41953;DHT22;63613;28.200;112.870;2023-09-19T12:07:13;33.10;42.60
41953;DHT22;63613;28.200;112.870;2023-09-19T12:10:06;33.10;42.40
41953;DHT22;63613;28.200;112.870;2023-09-19T12:12:36;33.10;42.70
41953;DHT22;63613;28.200;112.870;2023-09-19T12:15:03;33.10;42.70
41953;DHT22;63613;28.200;112.870;2023-09-19T12:17:42;33.10;42.30
41953;DHT22;63613;28.200;112.870;2023-09-19T12:20:12;33.10;42.10
41953;DHT22;63613;28.200;112.870;2023-09-19T12:22:44;33.10;41.90
41953;DHT22;63613;28.200;112.870;2023-09-19T12:25:18;33.00;41.60
41953;DHT22;63613;28.200;112.870;2023-09-19T12:27:49;33.00;41.30
41953;DHT22;63613;28.200;112.870;2023-09-19T12:30:28;33.00;42.40
41953;DHT22;63613;28.200;112.870;2023-09-19T12:33:00;33.00;42.50
41953;DHT22;63613;28.200;112.870;2023-09-19T12:35:33;32.90;42.10
41953;DHT22;63613;28.200;112.870;2023-09-19T12:38:06;32.90;42.40
41953;DHT22;63613;28.200;112.870;2023-09-19T12:40:40;32.90;42.30
41953;DHT22;63613;28.200;112.870;2023-09-19T12:43:10;32.90;42.30
41953;DHT22;63613;28.200;112.870;2023-09-19T12:45:46;32.90;42.40
41953;DHT22;63613;28.200;112.870;2023-09-19T12:48:24;32.90;42.10
41953;DHT22;63613;28.200;112.870;2023-09-19T12:51:16;32.90;41.40
41953;DHT22;63613;28.200;112.870;2023-09-19T12:53:57;32.90;40.90
41953;DHT22;63613;28.200;112.870;2023-09-19T12:56:27;32.80;40.80
41953;DHT22;63613;28.200;112.870;2023-09-19T12:58:58;32.90;40.60
41953;DHT22;63613;28.200;112.870;2023-09-19T13:01:36;32.80;40.20
41953;DHT22;63613;28.200;112.870;2023-09-19T13:04:17;32.80;40.00
41953;DHT22;63613;28.200;112.870;2023-09-19T13:07:04;32.80;40.00
41953;DHT22;63613;28.200;112.870;2023-09-19T13:09:39;32.80;40.30
41953;DHT22;63613;28.200;112.870;2023-09-19T13:12:36;32.70;40.20
41953;DHT22;63613;28.200;112.870;2023-09-19T13:15:12;32.80;40.20
41953;DHT22;63613;28.200;112.870;2023-09-19T13:17:47;32.80;40.30
41953;DHT22;63613;28.200;112.870;2023-09-19T13:20:34;32.80;40.10
41953;DHT22;63613;28.200;112.870;2023-09-19T13:23:08;32.70;40.20
41953;DHT22;63613;28.200;112.870;2023-09-19T13:25:58;32.70;40.10
41953;DHT22;63613;28.200;112.870;2023-09-19T13:28:31;32.70;40.10
41953;DHT22;63613;28.200;112.870;2023-09-19T13:30:58;32.70;40.30
41953;DHT22;63613;28.200;112.870;2023-09-19T13:33:25;32.70;40.10
41953;DHT22;63613;28.200;112.870;2023-09-19T13:35:55;32.70;40.20
41953;DHT22;63613;28.200;112.870;2023-09-19T13:38:23;32.70;39.90
41953;DHT22;63613;28.200;112.870;2023-09-19T13:40:53;32.70;39.70
41953;DHT22;63613;28.200;112.870;2023-09-19T13:43:28;32.70;39.40
41953;DHT22;63613;28.200;112.870;2023-09-19T13:46:14;32.70;39.20
41953;DHT22;63613;28.200;112.870;2023-09-19T13:48:45;32.70;38.80
41953;DHT22;63613;28.200;112.870;2023-09-19T13:51:16;32.70;38.50
41953;DHT22;63613;28.200;112.870;2023-09-19T13:53:48;32.70;38.50
41953;DHT22;63613;28.200;112.870;2023-09-19T13:56:34;32.70;38.40
41953;DHT22;63613;28.200;112.870;2023-09-19T13:59:04;32.70;38.20
41953;DHT22;63613;28.200;112.870;2023-09-19T14:01:35;32.60;38.00
41953;DHT22;63613;28.200;112.870;2023-09-19T14:04:02;32.60;37.90
41953;DHT22;63613;28.200;112.870;2023-09-19T14:06:31;32.60;37.90
41953;DHT22;63613;28.200;112.870;2023-09-19T14:08:59;32.60;38.20
41953;DHT22;63613;28.200;112.870;2023-09-19T14:11:27;32.60;38.10
41953;DHT22;63613;28.200;112.870;2023-09-19T14:13:56;32.60;38.20
41953;DHT22;63613;28.200;112.870;2023-09-19T14:16:26;32.60;38.10
41953;DHT22;63613;28.200;112.870;2023-09-19T14:18:57;32.60;38.00
41953;DHT22;63613;28.200;112.870;2023-09-19T14:21:26;32.50;38.00
41953;DHT22;63613;28.200;112.870;2023-09-19T14:23:53;32.60;38.10
41953;DHT22;63613;28.200;112.870;2023-09-19T14:26:20;32.50;38.00
41953;DHT22;63613;28.200;112.870;2023-09-19T14:29:09;32.60;38.10
41953;DHT22;63613;28.200;112.870;2023-09-19T14:31:41;32.50;38.10
41953;DHT22;63613;28.200;112.870;2023-09-19T14:34:11;32.50;38.30
41953;DHT22;63613;28.200;112.870;2023-09-19T14:36:44;32.50;37.90
41953;DHT22;63613;28.200;112.870;2023-09-19T14:39:10;32.50;37.80
41953;DHT22;63613;28.200;112.870;2023-09-19T14:41:37;32.50;37.60
41953;DHT22;63613;28.200;112.870;2023-09-19T14:44:06;32.40;37.50
41953;DHT22;63613;28.200;112.870;2023-09-19T14:46:35;32.50;37.40
41953;DHT22;63613;28.200;112.870;2023-09-19T14:49:03;32.40;37.50
41953;DHT22;63613;28.200;112.870;2023-09-19T14:51:30;32.40;37.70
41953;DHT22;63613;28.200;112.870;2023-09-19T14:53:59;32.40;37.60
41953;DHT22;63613;28.200;112.870;2023-09-19T14:56:28;32.40;37.50
41953;DHT22;63613;28.200;112.870;2023-09-19T14:58:57;32.10;31.30
41953;DHT22;63613;28.200;112.870;2023-09-19T15:01:24;32.10;31.90
41953;DHT22;63613;28.200;112.870;2023-09-19T15:03:53;32.20;32.30
41953;DHT22;63613;28.200;112.870;2023-09-19T15:06:21;32.20;33.10
41953;DHT22;63613;28.200;112.870;2023-09-19T15:08:48;32.20;34.00
41953;DHT22;63613;28.200;112.870;2023-09-19T15:11:36;32.20;34.50
41953;DHT22;63613;28.200;112.870;2023-09-19T15:14:02;32.20;34.50
41953;DHT22;63613;28.200;112.870;2023-09-19T15:16:34;32.20;34.90
41953;DHT22;63613;28.200;112.870;2023-09-19T15:19:03;32.20;35.70
41953;DHT22;63613;28.200;112.870;2023-09-19T15:21:35;32.20;37.10
41953;DHT22;63613;28.200;112.870;2023-09-19T15:24:03;32.20;38.50
41953;DHT22;63613;28.200;112.870;2023-09-19T15:26:33;32.20;39.40
41953;DHT22;63613;28.200;112.870;2023-09-19T15:29:06;32.20;40.80
41953;DHT22;63613;28.200;112.870;2023-09-19T15:31:34;32.20;41.00
41953;DHT22;63613;28.200;112.870;2023-09-19T15:34:06;32.20;41.10
41953;DHT22;63613;28.200;112.870;2023-09-19T15:36:34;32.20;42.30
41953;DHT22;63613;28.200;112.870;2023-09-19T15:39:05;32.30;43.60
41953;DHT22;63613;28.200;112.870;2023-09-19T15:41:35;32.20;44.40
41953;DHT22;63613;28.200;112.870;2023-09-19T15:44:13;32.30;47.00
41953;DHT22;63613;28.200;112.870;2023-09-19T15:46:40;32.30;48.00
41953;DHT22;63613;28.200;112.870;2023-09-19T15:49:07;32.30;47.10
41953;DHT22;63613;28.200;112.870;2023-09-19T15:51:36;32.30;46.90
41953;DHT22;63613;28.200;112.870;2023-09-19T15:54:14;32.20;46.50
41953;DHT22;63613;28.200;112.870;2023-09-19T15:56:41;32.20;46.00
41953;DHT22;63613;28.200;112.870;2023-09-19T15:59:11;32.30;45.50
41953;DHT22;63613;28.200;112.870;2023-09-19T16:01:42;32.30;45.20
41953;DHT22;63613;28.200;112.870;2023-09-19T16:04:10;32.20;45.00
41953;DHT22;63613;28.200;112.870;2023-09-19T16:06:37;32.20;44.90
41953;DHT22;63613;28.200;112.870;2023-09-19T16:09:25;32.20;44.90
41953;DHT22;63613;28.200;112.870;2023-09-19T16:11:52;32.20;45.20
41953;DHT22;63613;28.200;112.870;2023-09-19T16:14:19;32.20;45.30
41953;DHT22;63613;28.200;112.870;2023-09-19T16:16:46;32.20;45.10